deformed-offering

Nearby METAR Reports

 

KNUQ - Moffett Nas/Mtn, California, USA
Distance from station: N 9mi, 14km
Updated: Fri, 22-Feb-2019 2:56pm PST
Clear
Clear
 Wind from N
Wind: N 12 mph , 19 km/h
Temperature: 55°F , 13°C
Dew Point: 18°F , -8°C
Humidity: 23%
Barometer: 30.12 inHg , 1020 hPa
Clouds: Clear
Visibility: 10 miles , 16 km
2019/02/22 22:56 KNUQ 222256Z 35010KT 10SM CLR 13/M08 A3012 RMK AO2 SLP200 T01331078
KSJC - San Jose, California, USA
Distance from station: NE 9mi, 14km
Updated: Fri, 22-Feb-2019 2:53pm PST
Few Clouds
Few Clouds
 Wind from NW
Wind: NW 9 mph , 15 km/h
Temperature: 55°F , 13°C
Dew Point: 19°F , -7°C
Humidity: 24%
Barometer: 30.11 inHg , 1019.6 hPa
Clouds: Few Clouds
Visibility: 10 miles , 16 km
Cloud details: Few Clouds 6000 ft
Few Clouds 10000 ft
Few Clouds 15000 ft
2019/02/22 22:53 KSJC 222253Z 32008KT 10SM FEW060 FEW100 FEW150 13/M07 A3011 RMK AO2 SLP194 T01281067
 
KRHV - San Jose/Reid, California, USA
Distance from station: ENE 12mi, 19km
Updated: Fri, 22-Feb-2019 2:47pm PST
Clear
Clear
 Wind from NW
Wind: NW 9 mph , 15 km/h
Temperature: 57°F , 14°C
Dew Point: 14°F , -10°C
Humidity: 18%
Barometer: 30.08 inHg , 1018.6 hPa
Clouds: Clear
Visibility: 10 miles , 16 km
2019/02/22 22:47 KRHV 222247Z 32008KT 10SM SKC 14/M10 A3008
KPAO - Palo Alto, California, USA
Distance from station: NNW 14mi, 23km
Updated: Fri, 22-Feb-2019 12:47pm PST
NOT Current
Clear
Clear
 Wind from N
Wind: N 6 mph , 9 km/h
Barometer: 30.13 inHg , 1020.3 hPa
Clouds: Clear
Visibility: 10 miles , 16 km
2019/02/22 20:47 KPAO 222047Z 36005KT 10SM SKC A3013 RMK WIND ESTIMATED
 
KSQL - San Carlos Airpo, California, USA
Distance from station: NW 21mi, 34km
Updated: Fri, 22-Feb-2019 2:47pm PST
Few Clouds
Few Clouds
 Wind from NNE
Wind: NNE 7 mph , 11 km/h
Temperature: 54°F , 12°C
Dew Point: 23°F , -5°C
Humidity: 30%
Barometer: 30.11 inHg , 1019.6 hPa
Clouds: Few Clouds
Cloud details: Few Clouds 18000 ft
2019/02/22 22:47 KSQL 222247Z 02006KT FEW180 12/M05 A3011
KE16 - San Martin, California, USA
Distance from station: ESE 27mi, 43km
Updated: Fri, 22-Feb-2019 2:55pm PST
Clear
Clear
 Wind from NNW
Wind: NNW 10 mph , 17 km/h
Temperature: 55°F , 13°C
Dew Point: 10°F , -12°C
Humidity: 16%
Barometer: 30.10 inHg , 1019.3 hPa
Clouds: Clear
Visibility: 10 miles , 16 km
2019/02/22 22:55 KE16 222255Z AUTO 33009KT 10SM CLR 13/M12 A3010 RMK AO2
 
KWVI - Watsonville, California, USA
Distance from station: SSE 27mi, 44km
Updated: Fri, 22-Feb-2019 2:53pm PST
Clear
Clear
 Wind from W
Wind: W 12 mph , 19 km/h
Temperature: 54°F , 12°C
Dew Point: 30°F , -1°C
Humidity: 41%
Barometer: 30.11 inHg , 1019.6 hPa
Clouds: Clear
Visibility: 10 miles , 16 km
2019/02/22 22:53 KWVI 222253Z AUTO 27010KT 10SM CLR 12/M01 A3011 RMK AO2 SLP197 T01221006
KHWD - Hayward, California, USA
Distance from station: N 28mi, 44km
Updated: Fri, 22-Feb-2019 2:54pm PST
Few Clouds
Few Clouds
 Wind from W
Wind: W 8 mph , 13 km/h
Temperature: 55°F , 13°C
Dew Point: 21°F , -6°C
Humidity: 26%
Barometer: 30.11 inHg , 1019.6 hPa
Clouds: Few Clouds
Visibility: 10 miles , 16 km
Cloud details: Few Clouds 20000 ft
2019/02/22 22:54 KHWD 222254Z 28007KT 10SM FEW200 13/M06 A3011 RMK AO2 SLP205 T01331061
 
KSFO - San Francisco, California, USA
Distance from station: NW 30mi, 49km
Updated: Fri, 22-Feb-2019 2:56pm PST
Few Clouds
Few Clouds
 Wind from WNW
Wind: WNW 9 mph , 15 km/h
Temperature: 55°F , 13°C
Dew Point: 28°F , -2°C
Humidity: 36%
Barometer: 30.11 inHg , 1019.6 hPa
Clouds: Few Clouds
Visibility: 10 miles , 16 km
Cloud details: Few Clouds 3000 ft
Few Clouds 20000 ft
2019/02/22 22:56 KSFO 222256Z 30008KT 270V340 10SM FEW030 FEW200 13/M02 A3011 RMK AO2 SLP196 T01281022
KHAF - Half Moon Bay, California, USA
Distance from station: WNW 31mi, 50km
Updated: Wed, 13-Feb-2019 2:15pm PST
NOT Current
Light rain, Overcast
Light rain, Overcast
 Wind from S
Wind: S 33 mph , 54 km/h, Gust: 43 mph , 69 km/h
Temperature: 55°F , 13°C
Dew Point: 54°F , 12°C
Humidity: 94%
Barometer: 29.54 inHg , 1000.3 hPa
Summary: Light Rain
Clouds: Overcast
Visibility: 3/4 mile , 1.2 km
Cloud details: Overcast 700 ft
2019/02/13 22:15 KHAF 132215Z AUTO 17029G37KT 3/4SM -RA OVC007 13/12 A2954 RMK AO2
 
KOAK - Oakland, California, USA
Distance from station: NNW 31mi, 50km
Updated: Fri, 22-Feb-2019 2:53pm PST
Few Clouds
Few Clouds
 Wind from SW
Wind: SW 8 mph , 13 km/h
Temperature: 54°F , 12°C
Dew Point: 25°F , -4°C
Humidity: 33%
Barometer: 30.12 inHg , 1020 hPa
Clouds: Few Clouds
Visibility: 10 miles , 16 km
Cloud details: Few Clouds 20000 ft
2019/02/22 22:53 KOAK 222253Z 22007KT 10SM FEW200 12/M04 A3012 RMK AO2 SLP198 T01221044
KLVK - Livermore, California, USA
Distance from station: NNE 31mi, 51km
Updated: Fri, 22-Feb-2019 2:53pm PST
Clear
Clear
 Wind from calm
Wind: Calm
Temperature: 55°F , 13°C
Dew Point: 19°F , -7°C
Humidity: 24%
Barometer: 30.09 inHg , 1019 hPa
Clouds: Clear
Visibility: 10 miles , 16 km
2019/02/22 22:53 KLVK 222253Z 00000KT 10SM CLR 13/M07 A3009 RMK AO2 SLP188 T01281067
 
KCVH - Hollister Muni, California, USA
Distance from station: SE 42mi, 68km
Updated: Fri, 22-Feb-2019 3:15pm PST
Clear
Clear
 Wind from calm
Wind: Calm
Temperature: 57°F , 14°C
Dew Point: 21°F , -6°C
Humidity: 25%
Barometer: 30.09 inHg , 1019 hPa
Clouds: Clear
Visibility: 10 miles , 16 km
2019/02/22 23:15 KCVH 222315Z AUTO 00000KT 10SM CLR 14/M06 A3009 RMK A01
KSNS - Salinas, California, USA
Distance from station: SSE 48mi, 77km
Updated: Fri, 22-Feb-2019 2:53pm PST
Clear
Clear
 Wind from NW
Wind: NW 9 mph , 15 km/h
Temperature: 57°F , 14°C
Dew Point: 25°F , -4°C
Humidity: 29%
Barometer: 30.10 inHg , 1019.3 hPa
Clouds: Clear
Visibility: 10 miles , 16 km
2019/02/22 22:53 KSNS 222253Z 32008KT 10SM CLR 14/M04 A3010 RMK AO2 SLP202 T01391039
 
KMRY - Monterey, California, USA
Distance from station: SSE 49mi, 78km
Updated: Fri, 22-Feb-2019 2:54pm PST
Clear
Clear
 Wind from W
Wind: W 13 mph , 20 km/h
Temperature: 52°F , 11°C
Dew Point: 25°F , -4°C
Humidity: 35%
Barometer: 30.11 inHg , 1019.6 hPa
Clouds: Clear
Visibility: 10 miles , 16 km
2019/02/22 22:54 KMRY 222254Z 28011KT 10SM CLR 11/M04 A3011 RMK AO2 SLP210 T01111039
KCCR - Concord, California, USA
Distance from station: N 50mi, 81km
Updated: Fri, 22-Feb-2019 2:53pm PST
Clear
Clear
 Wind from varies
Wind: varies 3 mph , 6 km/h
Temperature: 57°F , 14°C
Dew Point: 19°F , -7°C
Humidity: 23%
Barometer: 30.11 inHg , 1019.6 hPa
Clouds: Clear
Visibility: 10 miles , 16 km
2019/02/22 22:53 KCCR 222253Z VRB03KT 10SM CLR 14/M07 A3011 RMK AO2 SLP181 T01441072
deformed-offering